sensor_id;sensor_type;location;lat;lon;timestamp;P1;durP1;ratioP1;P2;durP2;ratioP2
8113;SDS011;4099;52.684;9.918;2023-02-28T00:04:48;14.33;;;7.40;;
8113;SDS011;4099;52.684;9.918;2023-02-28T00:09:53;13.33;;;7.23;;
8113;SDS011;4099;52.684;9.918;2023-02-28T00:14:55;11.03;;;6.37;;
8113;SDS011;4099;52.684;9.918;2023-02-28T00:19:59;11.10;;;6.93;;
8113;SDS011;4099;52.684;9.918;2023-02-28T00:25:10;11.60;;;6.90;;
8113;SDS011;4099;52.684;9.918;2023-02-28T00:30:15;10.93;;;6.83;;
8113;SDS011;4099;52.684;9.918;2023-02-28T00:35:20;9.97;;;6.53;;
8113;SDS011;4099;52.684;9.918;2023-02-28T00:40:22;10.47;;;5.87;;
8113;SDS011;4099;52.684;9.918;2023-02-28T00:45:24;8.87;;;5.37;;
8113;SDS011;4099;52.684;9.918;2023-02-28T00:50:28;8.13;;;4.93;;
8113;SDS011;4099;52.684;9.918;2023-02-28T00:55:31;11.80;;;6.00;;
8113;SDS011;4099;52.684;9.918;2023-02-28T01:00:33;8.83;;;5.53;;
8113;SDS011;4099;52.684;9.918;2023-02-28T01:05:37;10.47;;;5.77;;
8113;SDS011;4099;52.684;9.918;2023-02-28T01:10:41;9.03;;;5.57;;
8113;SDS011;4099;52.684;9.918;2023-02-28T01:15:46;8.37;;;5.40;;
8113;SDS011;4099;52.684;9.918;2023-02-28T01:20:52;11.43;;;6.37;;
8113;SDS011;4099;52.684;9.918;2023-02-28T01:25:54;9.27;;;5.73;;
8113;SDS011;4099;52.684;9.918;2023-02-28T01:30:56;9.17;;;5.40;;
8113;SDS011;4099;52.684;9.918;2023-02-28T01:36:00;8.87;;;5.30;;
8113;SDS011;4099;52.684;9.918;2023-02-28T01:41:04;5.87;;;4.67;;
8113;SDS011;4099;52.684;9.918;2023-02-28T01:46:07;8.33;;;4.70;;
8113;SDS011;4099;52.684;9.918;2023-02-28T01:51:11;7.93;;;4.90;;
8113;SDS011;4099;52.684;9.918;2023-02-28T01:56:19;7.47;;;4.50;;
8113;SDS011;4099;52.684;9.918;2023-02-28T02:01:26;5.53;;;4.50;;
8113;SDS011;4099;52.684;9.918;2023-02-28T02:06:34;7.80;;;4.77;;
8113;SDS011;4099;52.684;9.918;2023-02-28T02:11:42;6.63;;;4.70;;
8113;SDS011;4099;52.684;9.918;2023-02-28T02:16:53;7.23;;;4.43;;
8113;SDS011;4099;52.684;9.918;2023-02-28T02:22:12;6.17;;;4.63;;
8113;SDS011;4099;52.684;9.918;2023-02-28T02:27:30;7.13;;;4.60;;
8113;SDS011;4099;52.684;9.918;2023-02-28T02:33:03;5.93;;;4.30;;
8113;SDS011;4099;52.684;9.918;2023-02-28T02:38:20;7.73;;;5.00;;
8113;SDS011;4099;52.684;9.918;2023-02-28T02:43:32;6.10;;;4.40;;
8113;SDS011;4099;52.684;9.918;2023-02-28T02:48:38;5.80;;;3.90;;
8113;SDS011;4099;52.684;9.918;2023-02-28T02:53:46;6.60;;;4.47;;
8113;SDS011;4099;52.684;9.918;2023-02-28T02:58:50;6.07;;;4.53;;
8113;SDS011;4099;52.684;9.918;2023-02-28T03:03:56;7.13;;;4.27;;
8113;SDS011;4099;52.684;9.918;2023-02-28T03:09:01;6.30;;;4.60;;
8113;SDS011;4099;52.684;9.918;2023-02-28T03:14:08;5.87;;;4.47;;
8113;SDS011;4099;52.684;9.918;2023-02-28T03:19:24;8.77;;;5.03;;
8113;SDS011;4099;52.684;9.918;2023-02-28T03:24:38;7.60;;;5.00;;
8113;SDS011;4099;52.684;9.918;2023-02-28T03:29:50;8.50;;;5.03;;
8113;SDS011;4099;52.684;9.918;2023-02-28T03:34:58;9.73;;;5.27;;
8113;SDS011;4099;52.684;9.918;2023-02-28T03:40:08;8.40;;;4.63;;
8113;SDS011;4099;52.684;9.918;2023-02-28T03:45:15;6.87;;;4.57;;
8113;SDS011;4099;52.684;9.918;2023-02-28T03:50:23;6.20;;;4.43;;
8113;SDS011;4099;52.684;9.918;2023-02-28T03:55:31;6.13;;;4.10;;
8113;SDS011;4099;52.684;9.918;2023-02-28T04:00:40;5.73;;;4.30;;
8113;SDS011;4099;52.684;9.918;2023-02-28T04:05:47;8.57;;;4.77;;
8113;SDS011;4099;52.684;9.918;2023-02-28T04:10:56;8.50;;;4.87;;
8113;SDS011;4099;52.684;9.918;2023-02-28T04:16:05;5.67;;;4.67;;
8113;SDS011;4099;52.684;9.918;2023-02-28T04:21:12;6.17;;;3.73;;
8113;SDS011;4099;52.684;9.918;2023-02-28T04:26:15;5.20;;;3.67;;
8113;SDS011;4099;52.684;9.918;2023-02-28T04:31:17;8.50;;;4.87;;
8113;SDS011;4099;52.684;9.918;2023-02-28T04:36:19;9.33;;;6.83;;
8113;SDS011;4099;52.684;9.918;2023-02-28T04:41:24;8.97;;;5.60;;
8113;SDS011;4099;52.684;9.918;2023-02-28T04:46:26;6.33;;;4.57;;
8113;SDS011;4099;52.684;9.918;2023-02-28T04:51:28;6.77;;;4.63;;
8113;SDS011;4099;52.684;9.918;2023-02-28T04:56:32;7.40;;;4.50;;
8113;SDS011;4099;52.684;9.918;2023-02-28T05:01:34;7.13;;;4.60;;
8113;SDS011;4099;52.684;9.918;2023-02-28T05:06:36;7.37;;;5.20;;
8113;SDS011;4099;52.684;9.918;2023-02-28T05:11:40;5.77;;;4.70;;
8113;SDS011;4099;52.684;9.918;2023-02-28T05:16:42;8.17;;;5.50;;
8113;SDS011;4099;52.684;9.918;2023-02-28T05:21:49;8.43;;;4.93;;
8113;SDS011;4099;52.684;9.918;2023-02-28T05:26:55;7.90;;;5.20;;
8113;SDS011;4099;52.684;9.918;2023-02-28T05:31:57;7.20;;;4.47;;
8113;SDS011;4099;52.684;9.918;2023-02-28T05:36:59;7.63;;;4.93;;
8113;SDS011;4099;52.684;9.918;2023-02-28T05:42:03;7.53;;;5.73;;
8113;SDS011;4099;52.684;9.918;2023-02-28T05:47:05;8.77;;;5.63;;
8113;SDS011;4099;52.684;9.918;2023-02-28T05:52:06;7.57;;;5.43;;
8113;SDS011;4099;52.684;9.918;2023-02-28T05:57:10;9.17;;;5.50;;
8113;SDS011;4099;52.684;9.918;2023-02-28T06:02:13;10.90;;;7.27;;
8113;SDS011;4099;52.684;9.918;2023-02-28T06:07:16;9.93;;;6.43;;
8113;SDS011;4099;52.684;9.918;2023-02-28T06:12:20;9.60;;;6.00;;
8113;SDS011;4099;52.684;9.918;2023-02-28T06:17:22;9.80;;;6.73;;
8113;SDS011;4099;52.684;9.918;2023-02-28T06:22:24;8.83;;;5.97;;
8113;SDS011;4099;52.684;9.918;2023-02-28T06:27:28;11.57;;;6.40;;
8113;SDS011;4099;52.684;9.918;2023-02-28T06:32:31;7.80;;;5.10;;
8113;SDS011;4099;52.684;9.918;2023-02-28T06:37:33;8.00;;;5.33;;
8113;SDS011;4099;52.684;9.918;2023-02-28T06:42:37;7.13;;;4.97;;
8113;SDS011;4099;52.684;9.918;2023-02-28T06:47:39;6.73;;;4.77;;
8113;SDS011;4099;52.684;9.918;2023-02-28T06:52:42;7.83;;;5.57;;
8113;SDS011;4099;52.684;9.918;2023-02-28T06:57:45;7.77;;;5.20;;
8113;SDS011;4099;52.684;9.918;2023-02-28T07:02:47;8.83;;;5.83;;
8113;SDS011;4099;52.684;9.918;2023-02-28T07:07:49;8.43;;;6.00;;
8113;SDS011;4099;52.684;9.918;2023-02-28T07:12:54;15.37;;;9.17;;
8113;SDS011;4099;52.684;9.918;2023-02-28T07:17:57;13.80;;;7.80;;
8113;SDS011;4099;52.684;9.918;2023-02-28T07:22:59;15.00;;;8.07;;
8113;SDS011;4099;52.684;9.918;2023-02-28T07:28:03;14.23;;;8.90;;
8113;SDS011;4099;52.684;9.918;2023-02-28T07:33:05;15.93;;;9.10;;
8113;SDS011;4099;52.684;9.918;2023-02-28T07:38:07;13.53;;;9.27;;
8113;SDS011;4099;52.684;9.918;2023-02-28T07:43:12;13.17;;;8.60;;
8113;SDS011;4099;52.684;9.918;2023-02-28T07:48:14;13.90;;;9.07;;
8113;SDS011;4099;52.684;9.918;2023-02-28T07:53:19;13.93;;;8.53;;
8113;SDS011;4099;52.684;9.918;2023-02-28T07:58:22;22.40;;;13.57;;
8113;SDS011;4099;52.684;9.918;2023-02-28T08:03:25;17.20;;;9.80;;
8113;SDS011;4099;52.684;9.918;2023-02-28T08:08:27;59.87;;;31.50;;
8113;SDS011;4099;52.684;9.918;2023-02-28T08:13:33;65.93;;;35.37;;
8113;SDS011;4099;52.684;9.918;2023-02-28T08:18:35;30.00;;;17.70;;
8113;SDS011;4099;52.684;9.918;2023-02-28T08:23:37;24.80;;;15.20;;
8113;SDS011;4099;52.684;9.918;2023-02-28T08:28:40;21.43;;;13.63;;
8113;SDS011;4099;52.684;9.918;2023-02-28T08:33:42;20.40;;;11.93;;
8113;SDS011;4099;52.684;9.918;2023-02-28T08:38:45;14.23;;;8.93;;
8113;SDS011;4099;52.684;9.918;2023-02-28T08:43:49;11.33;;;9.70;;
8113;SDS011;4099;52.684;9.918;2023-02-28T08:48:51;10.00;;;7.83;;
8113;SDS011;4099;52.684;9.918;2023-02-28T08:53:54;7.10;;;5.97;;
8113;SDS011;4099;52.684;9.918;2023-02-28T08:59:01;6.90;;;4.33;;
8113;SDS011;4099;52.684;9.918;2023-02-28T09:04:03;3.20;;;2.80;;
8113;SDS011;4099;52.684;9.918;2023-02-28T09:09:08;4.03;;;2.80;;
8113;SDS011;4099;52.684;9.918;2023-02-28T09:14:11;3.67;;;2.20;;
8113;SDS011;4099;52.684;9.918;2023-02-28T09:19:14;3.80;;;2.10;;
8113;SDS011;4099;52.684;9.918;2023-02-28T09:24:16;2.50;;;1.60;;
8113;SDS011;4099;52.684;9.918;2023-02-28T09:29:20;2.33;;;2.00;;
8113;SDS011;4099;52.684;9.918;2023-02-28T09:34:22;2.40;;;1.57;;
8113;SDS011;4099;52.684;9.918;2023-02-28T09:39:25;3.00;;;1.60;;
8113;SDS011;4099;52.684;9.918;2023-02-28T09:44:32;2.57;;;1.57;;
8113;SDS011;4099;52.684;9.918;2023-02-28T09:49:38;2.57;;;1.70;;
8113;SDS011;4099;52.684;9.918;2023-02-28T09:54:43;1.70;;;1.30;;
8113;SDS011;4099;52.684;9.918;2023-02-28T09:59:50;2.50;;;1.10;;
8113;SDS011;4099;52.684;9.918;2023-02-28T10:05:13;2.33;;;1.10;;
8113;SDS011;4099;52.684;9.918;2023-02-28T10:10:22;1.73;;;1.30;;
8113;SDS011;4099;52.684;9.918;2023-02-28T10:15:31;1.77;;;1.10;;
8113;SDS011;4099;52.684;9.918;2023-02-28T10:20:34;2.97;;;1.20;;
8113;SDS011;4099;52.684;9.918;2023-02-28T10:25:40;1.50;;;1.23;;
8113;SDS011;4099;52.684;9.918;2023-02-28T10:30:50;1.43;;;1.10;;
8113;SDS011;4099;52.684;9.918;2023-02-28T10:35:53;1.43;;;0.97;;
8113;SDS011;4099;52.684;9.918;2023-02-28T10:41:05;2.07;;;1.00;;
8113;SDS011;4099;52.684;9.918;2023-02-28T10:46:12;0.80;;;0.70;;
8113;SDS011;4099;52.684;9.918;2023-02-28T10:51:25;1.57;;;0.90;;
8113;SDS011;4099;52.684;9.918;2023-02-28T10:56:37;2.03;;;0.90;;
8113;SDS011;4099;52.684;9.918;2023-02-28T11:01:41;1.13;;;0.93;;
8113;SDS011;4099;52.684;9.918;2023-02-28T11:06:45;1.73;;;1.33;;
8113;SDS011;4099;52.684;9.918;2023-02-28T11:11:48;2.57;;;1.10;;
8113;SDS011;4099;52.684;9.918;2023-02-28T11:16:52;2.23;;;1.20;;
8113;SDS011;4099;52.684;9.918;2023-02-28T11:21:58;2.30;;;1.17;;
8113;SDS011;4099;52.684;9.918;2023-02-28T11:27:02;1.37;;;1.03;;
8113;SDS011;4099;52.684;9.918;2023-02-28T11:32:11;1.23;;;1.00;;
8113;SDS011;4099;52.684;9.918;2023-02-28T11:37:15;1.30;;;1.00;;
8113;SDS011;4099;52.684;9.918;2023-02-28T11:42:23;1.80;;;1.03;;
8113;SDS011;4099;52.684;9.918;2023-02-28T11:47:41;1.13;;;0.90;;
8113;SDS011;4099;52.684;9.918;2023-02-28T11:52:50;1.17;;;0.90;;
8113;SDS011;4099;52.684;9.918;2023-02-28T11:58:05;1.00;;;0.80;;
8113;SDS011;4099;52.684;9.918;2023-02-28T12:03:25;1.10;;;1.00;;
8113;SDS011;4099;52.684;9.918;2023-02-28T12:08:40;1.57;;;1.00;;
8113;SDS011;4099;52.684;9.918;2023-02-28T12:13:48;1.37;;;0.87;;
8113;SDS011;4099;52.684;9.918;2023-02-28T12:19:03;1.83;;;0.90;;
8113;SDS011;4099;52.684;9.918;2023-02-28T12:24:18;1.47;;;1.00;;
8113;SDS011;4099;52.684;9.918;2023-02-28T12:29:37;3.77;;;2.30;;
8113;SDS011;4099;52.684;9.918;2023-02-28T12:34:46;2.13;;;1.93;;
8113;SDS011;4099;52.684;9.918;2023-02-28T12:39:51;1.20;;;1.00;;
8113;SDS011;4099;52.684;9.918;2023-02-28T12:44:58;2.00;;;1.70;;
8113;SDS011;4099;52.684;9.918;2023-02-28T12:50:05;1.60;;;1.03;;
8113;SDS011;4099;52.684;9.918;2023-02-28T12:55:13;1.10;;;0.70;;
8113;SDS011;4099;52.684;9.918;2023-02-28T13:00:22;2.07;;;1.07;;
8113;SDS011;4099;52.684;9.918;2023-02-28T13:05:33;1.13;;;0.90;;
8113;SDS011;4099;52.684;9.918;2023-02-28T13:10:52;1.53;;;1.07;;
8113;SDS011;4099;52.684;9.918;2023-02-28T13:15:59;2.57;;;1.80;;
8113;SDS011;4099;52.684;9.918;2023-02-28T13:21:05;1.50;;;1.40;;
8113;SDS011;4099;52.684;9.918;2023-02-28T13:26:08;2.63;;;1.40;;
8113;SDS011;4099;52.684;9.918;2023-02-28T13:31:13;1.90;;;1.20;;
8113;SDS011;4099;52.684;9.918;2023-02-28T13:36:27;1.33;;;1.00;;
8113;SDS011;4099;52.684;9.918;2023-02-28T13:41:41;2.60;;;1.20;;
8113;SDS011;4099;52.684;9.918;2023-02-28T13:52:30;1.33;;;1.23;;
8113;SDS011;4099;52.684;9.918;2023-02-28T13:57:38;1.63;;;1.53;;
8113;SDS011;4099;52.684;9.918;2023-02-28T14:03:00;1.97;;;1.30;;
8113;SDS011;4099;52.684;9.918;2023-02-28T14:08:15;1.53;;;1.43;;
8113;SDS011;4099;52.684;9.918;2023-02-28T14:13:37;1.83;;;1.10;;
8113;SDS011;4099;52.684;9.918;2023-02-28T14:18:47;2.10;;;1.20;;
8113;SDS011;4099;52.684;9.918;2023-02-28T14:24:11;1.60;;;1.33;;
8113;SDS011;4099;52.684;9.918;2023-02-28T14:29:30;1.30;;;1.00;;
8113;SDS011;4099;52.684;9.918;2023-02-28T14:34:45;1.23;;;1.00;;
8113;SDS011;4099;52.684;9.918;2023-02-28T14:39:56;2.00;;;1.10;;
8113;SDS011;4099;52.684;9.918;2023-02-28T14:44:59;1.33;;;1.20;;
8113;SDS011;4099;52.684;9.918;2023-02-28T14:50:03;2.13;;;1.40;;
8113;SDS011;4099;52.684;9.918;2023-02-28T14:55:12;2.93;;;2.00;;
8113;SDS011;4099;52.684;9.918;2023-02-28T15:00:20;1.50;;;1.23;;
8113;SDS011;4099;52.684;9.918;2023-02-28T15:05:26;2.23;;;1.73;;
8113;SDS011;4099;52.684;9.918;2023-02-28T15:10:32;1.47;;;1.20;;
8113;SDS011;4099;52.684;9.918;2023-02-28T15:15:39;2.00;;;1.40;;
8113;SDS011;4099;52.684;9.918;2023-02-28T15:20:44;1.00;;;0.87;;
8113;SDS011;4099;52.684;9.918;2023-02-28T15:25:48;1.63;;;1.30;;
8113;SDS011;4099;52.684;9.918;2023-02-28T15:30:54;1.33;;;1.20;;
8113;SDS011;4099;52.684;9.918;2023-02-28T15:36:05;3.00;;;1.63;;
8113;SDS011;4099;52.684;9.918;2023-02-28T15:41:24;1.80;;;1.10;;
8113;SDS011;4099;52.684;9.918;2023-02-28T15:46:27;2.10;;;1.60;;
8113;SDS011;4099;52.684;9.918;2023-02-28T15:51:32;3.00;;;1.63;;
8113;SDS011;4099;52.684;9.918;2023-02-28T15:56:39;1.30;;;1.20;;
8113;SDS011;4099;52.684;9.918;2023-02-28T16:01:46;2.47;;;1.97;;
8113;SDS011;4099;52.684;9.918;2023-02-28T16:06:53;3.47;;;2.90;;
8113;SDS011;4099;52.684;9.918;2023-02-28T16:12:04;1.87;;;1.70;;
8113;SDS011;4099;52.684;9.918;2023-02-28T16:17:08;3.17;;;1.70;;
8113;SDS011;4099;52.684;9.918;2023-02-28T16:22:17;1.87;;;1.67;;
8113;SDS011;4099;52.684;9.918;2023-02-28T16:27:24;1.83;;;1.73;;
8113;SDS011;4099;52.684;9.918;2023-02-28T16:32:31;3.07;;;2.03;;
8113;SDS011;4099;52.684;9.918;2023-02-28T16:37:35;2.57;;;1.80;;
8113;SDS011;4099;52.684;9.918;2023-02-28T16:42:39;1.93;;;1.73;;
8113;SDS011;4099;52.684;9.918;2023-02-28T16:47:42;1.67;;;1.57;;
8113;SDS011;4099;52.684;9.918;2023-02-28T16:52:43;1.70;;;1.20;;
8113;SDS011;4099;52.684;9.918;2023-02-28T16:57:48;1.53;;;1.30;;
8113;SDS011;4099;52.684;9.918;2023-02-28T17:02:52;2.70;;;1.43;;
8113;SDS011;4099;52.684;9.918;2023-02-28T17:07:55;3.20;;;2.80;;
8113;SDS011;4099;52.684;9.918;2023-02-28T17:12:58;7.33;;;5.10;;
8113;SDS011;4099;52.684;9.918;2023-02-28T17:18:00;9.40;;;6.23;;
8113;SDS011;4099;52.684;9.918;2023-02-28T17:23:03;11.53;;;7.80;;
8113;SDS011;4099;52.684;9.918;2023-02-28T17:28:08;16.67;;;12.27;;
8113;SDS011;4099;52.684;9.918;2023-02-28T17:33:10;23.17;;;15.67;;
8113;SDS011;4099;52.684;9.918;2023-02-28T17:38:14;22.57;;;13.63;;
8113;SDS011;4099;52.684;9.918;2023-02-28T17:43:19;15.77;;;10.60;;
8113;SDS011;4099;52.684;9.918;2023-02-28T17:48:21;11.73;;;8.03;;
8113;SDS011;4099;52.684;9.918;2023-02-28T17:53:23;14.13;;;7.80;;
8113;SDS011;4099;52.684;9.918;2023-02-28T17:58:28;20.63;;;11.70;;
8113;SDS011;4099;52.684;9.918;2023-02-28T18:03:31;23.70;;;14.17;;
8113;SDS011;4099;52.684;9.918;2023-02-28T18:08:32;28.70;;;17.37;;
8113;SDS011;4099;52.684;9.918;2023-02-28T18:13:37;15.43;;;9.83;;
8113;SDS011;4099;52.684;9.918;2023-02-28T18:18:40;16.43;;;11.13;;
8113;SDS011;4099;52.684;9.918;2023-02-28T18:23:43;13.67;;;9.93;;
8113;SDS011;4099;52.684;9.918;2023-02-28T18:28:49;11.03;;;9.37;;
8113;SDS011;4099;52.684;9.918;2023-02-28T18:33:51;11.47;;;8.83;;
8113;SDS011;4099;52.684;9.918;2023-02-28T18:38:53;11.37;;;8.40;;
8113;SDS011;4099;52.684;9.918;2023-02-28T18:43:57;10.50;;;7.43;;
8113;SDS011;4099;52.684;9.918;2023-02-28T18:49:01;10.40;;;7.83;;
8113;SDS011;4099;52.684;9.918;2023-02-28T18:54:03;9.50;;;7.60;;
8113;SDS011;4099;52.684;9.918;2023-02-28T18:59:06;10.33;;;8.13;;
8113;SDS011;4099;52.684;9.918;2023-02-28T19:04:09;12.93;;;9.27;;
8113;SDS011;4099;52.684;9.918;2023-02-28T19:09:12;18.17;;;12.27;;
8113;SDS011;4099;52.684;9.918;2023-02-28T19:14:16;17.90;;;13.03;;
8113;SDS011;4099;52.684;9.918;2023-02-28T19:19:18;22.53;;;14.73;;
8113;SDS011;4099;52.684;9.918;2023-02-28T19:24:20;25.27;;;15.90;;
8113;SDS011;4099;52.684;9.918;2023-02-28T19:29:23;24.77;;;16.53;;
8113;SDS011;4099;52.684;9.918;2023-02-28T19:34:25;20.60;;;13.03;;
8113;SDS011;4099;52.684;9.918;2023-02-28T19:39:27;19.70;;;13.70;;
8113;SDS011;4099;52.684;9.918;2023-02-28T19:44:42;19.37;;;13.00;;
8113;SDS011;4099;52.684;9.918;2023-02-28T19:49:44;14.73;;;10.50;;
8113;SDS011;4099;52.684;9.918;2023-02-28T19:54:46;10.17;;;8.90;;
8113;SDS011;4099;52.684;9.918;2023-02-28T19:59:50;12.33;;;8.30;;
8113;SDS011;4099;52.684;9.918;2023-02-28T20:04:52;7.43;;;5.90;;
8113;SDS011;4099;52.684;9.918;2023-02-28T20:09:56;6.17;;;5.57;;
8113;SDS011;4099;52.684;9.918;2023-02-28T20:14:59;7.90;;;5.53;;
8113;SDS011;4099;52.684;9.918;2023-02-28T20:20:01;6.53;;;5.40;;
8113;SDS011;4099;52.684;9.918;2023-02-28T20:25:03;10.43;;;6.43;;
8113;SDS011;4099;52.684;9.918;2023-02-28T20:30:09;12.23;;;7.23;;
8113;SDS011;4099;52.684;9.918;2023-02-28T20:35:12;9.37;;;7.13;;
8113;SDS011;4099;52.684;9.918;2023-02-28T20:40:15;8.87;;;6.60;;
8113;SDS011;4099;52.684;9.918;2023-02-28T20:45:18;9.87;;;6.97;;
8113;SDS011;4099;52.684;9.918;2023-02-28T20:50:20;12.33;;;8.23;;
8113;SDS011;4099;52.684;9.918;2023-02-28T20:55:22;15.50;;;9.13;;
8113;SDS011;4099;52.684;9.918;2023-02-28T21:00:26;12.63;;;8.90;;
8113;SDS011;4099;52.684;9.918;2023-02-28T21:05:28;12.93;;;7.97;;
8113;SDS011;4099;52.684;9.918;2023-02-28T21:10:30;12.17;;;7.23;;
8113;SDS011;4099;52.684;9.918;2023-02-28T21:15:36;7.30;;;5.10;;
8113;SDS011;4099;52.684;9.918;2023-02-28T21:20:39;7.00;;;4.67;;
8113;SDS011;4099;52.684;9.918;2023-02-28T21:25:41;6.80;;;3.60;;
8113;SDS011;4099;52.684;9.918;2023-02-28T21:30:44;7.13;;;4.30;;
8113;SDS011;4099;52.684;9.918;2023-02-28T21:35:46;4.47;;;3.43;;
8113;SDS011;4099;52.684;9.918;2023-02-28T21:40:48;4.37;;;3.40;;
8113;SDS011;4099;52.684;9.918;2023-02-28T21:45:52;7.53;;;4.00;;
8113;SDS011;4099;52.684;9.918;2023-02-28T21:50:54;6.27;;;3.83;;
8113;SDS011;4099;52.684;9.918;2023-02-28T21:55:58;5.80;;;3.60;;
8113;SDS011;4099;52.684;9.918;2023-02-28T22:01:05;5.70;;;3.93;;
8113;SDS011;4099;52.684;9.918;2023-02-28T22:06:10;8.03;;;4.73;;
8113;SDS011;4099;52.684;9.918;2023-02-28T22:11:15;6.50;;;4.63;;
8113;SDS011;4099;52.684;9.918;2023-02-28T22:16:19;6.73;;;4.70;;
8113;SDS011;4099;52.684;9.918;2023-02-28T22:21:21;5.53;;;4.43;;
8113;SDS011;4099;52.684;9.918;2023-02-28T22:26:24;4.83;;;3.73;;
8113;SDS011;4099;52.684;9.918;2023-02-28T22:31:28;6.53;;;4.17;;
8113;SDS011;4099;52.684;9.918;2023-02-28T22:36:31;9.17;;;5.37;;
8113;SDS011;4099;52.684;9.918;2023-02-28T22:41:33;13.77;;;7.83;;
8113;SDS011;4099;52.684;9.918;2023-02-28T22:46:36;18.50;;;8.20;;
8113;SDS011;4099;52.684;9.918;2023-02-28T22:51:39;8.03;;;4.80;;
8113;SDS011;4099;52.684;9.918;2023-02-28T22:56:40;5.57;;;4.20;;
8113;SDS011;4099;52.684;9.918;2023-02-28T23:01:43;7.00;;;3.30;;
8113;SDS011;4099;52.684;9.918;2023-02-28T23:06:45;6.37;;;3.63;;
8113;SDS011;4099;52.684;9.918;2023-02-28T23:11:48;5.73;;;3.10;;
8113;SDS011;4099;52.684;9.918;2023-02-28T23:16:52;4.30;;;2.70;;
8113;SDS011;4099;52.684;9.918;2023-02-28T23:21:54;3.80;;;2.87;;
8113;SDS011;4099;52.684;9.918;2023-02-28T23:26:57;5.73;;;3.30;;
8113;SDS011;4099;52.684;9.918;2023-02-28T23:32:01;5.97;;;3.43;;
8113;SDS011;4099;52.684;9.918;2023-02-28T23:37:04;5.73;;;3.97;;
8113;SDS011;4099;52.684;9.918;2023-02-28T23:42:06;6.67;;;4.00;;
8113;SDS011;4099;52.684;9.918;2023-02-28T23:47:09;6.90;;;4.20;;
8113;SDS011;4099;52.684;9.918;2023-02-28T23:52:13;5.10;;;3.60;;
8113;SDS011;4099;52.684;9.918;2023-02-28T23:57:15;5.50;;;3.13;;
